createdAt,value
2022-08-26T00:00:20.839Z,23.10
2022-08-26T00:02:49.202Z,23.10
2022-08-26T00:07:46.707Z,23.00
2022-08-26T00:10:15.358Z,22.90
2022-08-26T00:12:45.318Z,22.90
2022-08-26T00:15:19.164Z,22.80
2022-08-26T00:17:49.829Z,22.80
2022-08-26T00:20:22.826Z,22.80
2022-08-26T00:25:20.539Z,22.80
2022-08-26T00:27:50.670Z,22.70
2022-08-26T00:30:26.597Z,22.70
2022-08-26T00:32:56.069Z,22.70
2022-08-26T00:35:25.616Z,22.60
2022-08-26T00:37:57.418Z,22.60
2022-08-26T00:40:31.417Z,22.60
2022-08-26T00:43:02.351Z,22.50
2022-08-26T00:45:45.111Z,22.60
2022-08-26T00:48:17.034Z,22.50
2022-08-26T00:50:54.397Z,22.50
2022-08-26T00:53:26.299Z,22.40
2022-08-26T00:56:02.569Z,22.40
2022-08-26T00:58:35.092Z,22.40
2022-08-26T01:01:04.081Z,22.30
2022-08-26T01:03:35.026Z,22.30
2022-08-26T01:06:05.278Z,22.30
2022-08-26T01:08:42.060Z,22.30
2022-08-26T01:11:12.555Z,22.20
2022-08-26T01:16:15.613Z,22.10
2022-08-26T01:18:46.943Z,22.10
2022-08-26T01:21:27.202Z,22.10
2022-08-26T01:23:58.913Z,22.00
2022-08-26T01:26:34.433Z,22.00
2022-08-26T01:29:07.929Z,22.00
2022-08-26T01:31:42.335Z,21.90
2022-08-26T01:34:18.832Z,21.90
2022-08-26T01:36:51.582Z,21.90
2022-08-26T01:39:21.901Z,21.80
2022-08-26T01:41:53.855Z,21.80
2022-08-26T01:44:26.833Z,21.80
2022-08-26T01:46:58.061Z,21.80
2022-08-26T01:49:27.882Z,21.70
2022-08-26T01:52:02.020Z,21.70
2022-08-26T01:54:34.264Z,21.60
2022-08-26T01:57:03.845Z,21.60
2022-08-26T01:59:32.758Z,21.60
2022-08-26T02:02:01.593Z,21.60
2022-08-26T02:04:34.839Z,21.50
2022-08-26T02:07:07.761Z,21.50
2022-08-26T02:09:41.357Z,21.50
2022-08-26T02:12:11.739Z,21.40
2022-08-26T02:14:46.666Z,21.40
2022-08-26T02:17:15.697Z,21.40
2022-08-26T02:19:51.388Z,21.40
2022-08-26T02:22:24.703Z,21.40
2022-08-26T02:24:58.565Z,21.30
2022-08-26T02:27:32.841Z,21.30
2022-08-26T02:30:11.093Z,21.20
2022-08-26T02:32:40.316Z,21.20
2022-08-26T02:35:11.174Z,21.20
2022-08-26T02:37:39.765Z,21.20
2022-08-26T02:40:15.887Z,21.10
2022-08-26T02:45:13.468Z,21.00
2022-08-26T02:47:45.954Z,21.00
2022-08-26T02:50:15.737Z,21.10
2022-08-26T02:52:45.292Z,21.00
2022-08-26T02:55:15.716Z,21.00
2022-08-26T02:57:44.183Z,20.90
2022-08-26T03:00:16.345Z,20.90
2022-08-26T03:05:14.244Z,20.90
2022-08-26T03:07:45.183Z,20.90
2022-08-26T03:10:16.366Z,20.90
2022-08-26T03:12:47.453Z,20.80
2022-08-26T03:15:19.400Z,20.80
2022-08-26T03:17:50.239Z,20.80
2022-08-26T03:20:19.516Z,20.70
2022-08-26T03:25:22.449Z,20.70
2022-08-26T03:27:52.365Z,20.70
2022-08-26T03:30:38.725Z,20.70
2022-08-26T03:33:15.020Z,20.60
2022-08-26T03:35:45.697Z,20.60
2022-08-26T03:38:14.482Z,20.70
2022-08-26T03:40:44.830Z,20.50
2022-08-26T03:43:15.939Z,20.50
2022-08-26T03:48:14.447Z,20.40
2022-08-26T03:50:43.845Z,20.40
2022-08-26T03:53:12.861Z,20.40
2022-08-26T03:55:43.641Z,20.40
2022-08-26T03:58:12.518Z,20.40
2022-08-26T04:00:40.899Z,20.40
2022-08-26T04:03:14.740Z,20.40
2022-08-26T04:08:15.383Z,20.40
2022-08-26T04:10:45.172Z,20.30
2022-08-26T04:13:13.776Z,20.30
2022-08-26T04:15:42.220Z,20.30
2022-08-26T04:18:10.677Z,20.30
2022-08-26T04:23:08.075Z,20.30
2022-08-26T04:25:36.549Z,20.20
2022-08-26T04:28:10.593Z,20.20
2022-08-26T04:30:39.565Z,20.20
2022-08-26T04:33:13.183Z,20.20
2022-08-26T04:35:44.014Z,20.20
2022-08-26T04:40:46.755Z,20.20
2022-08-26T04:43:16.817Z,20.20
2022-08-26T04:45:45.260Z,20.20
2022-08-26T04:48:16.828Z,20.20
2022-08-26T04:50:45.407Z,20.20
2022-08-26T04:53:18.112Z,20.20
2022-08-26T04:55:46.667Z,20.20
2022-08-26T04:58:20.821Z,20.20
2022-08-26T05:00:51.531Z,20.30
2022-08-26T05:03:20.885Z,20.30
2022-08-26T05:05:50.893Z,20.40
2022-08-26T05:08:22.532Z,20.40
2022-08-26T05:10:55.899Z,20.40
2022-08-26T05:13:28.590Z,20.50
2022-08-26T05:16:00.557Z,20.50
2022-08-26T05:18:29.984Z,20.50
2022-08-26T05:20:58.420Z,20.50
2022-08-26T05:23:27.148Z,20.60
2022-08-26T05:25:59.245Z,20.60
2022-08-26T05:28:31.203Z,20.50
2022-08-26T05:31:00.553Z,20.50
2022-08-26T05:33:29.424Z,20.50
2022-08-26T05:35:57.924Z,20.50
2022-08-26T05:38:30.316Z,20.40
2022-08-26T05:40:59.000Z,20.40
2022-08-26T05:43:29.716Z,20.40
2022-08-26T05:46:07.751Z,20.40
2022-08-26T05:48:36.373Z,20.30
2022-08-26T05:51:08.781Z,20.30
2022-08-26T05:53:38.649Z,20.30
2022-08-26T05:56:09.327Z,20.30
2022-08-26T05:58:42.426Z,20.30
2022-08-26T06:01:17.429Z,20.40
2022-08-26T06:03:50.053Z,20.40
2022-08-26T06:06:27.212Z,20.40
2022-08-26T06:08:59.530Z,20.50
2022-08-26T06:11:30.562Z,20.50
2022-08-26T06:14:04.356Z,20.60
2022-08-26T06:16:36.301Z,20.70
2022-08-26T06:19:10.747Z,20.70
2022-08-26T06:21:41.543Z,20.80
2022-08-26T06:24:30.491Z,20.90
2022-08-26T06:27:02.160Z,20.90
2022-08-26T06:29:36.140Z,21.00
2022-08-26T06:32:06.778Z,21.10
2022-08-26T06:34:35.389Z,21.10
2022-08-26T06:37:06.466Z,21.20
2022-08-26T06:39:35.317Z,21.20
2022-08-26T06:42:08.876Z,21.30
2022-08-26T06:44:41.662Z,21.30
2022-08-26T06:47:13.285Z,21.30
2022-08-26T06:49:41.672Z,21.30
2022-08-26T06:52:10.084Z,21.40
2022-08-26T06:54:43.054Z,21.50
2022-08-26T06:57:13.118Z,21.50
2022-08-26T06:59:44.138Z,21.50
2022-08-26T07:02:13.433Z,21.60
2022-08-26T07:04:42.318Z,21.80
2022-08-26T07:07:14.759Z,21.90
2022-08-26T07:09:43.467Z,22.20
2022-08-26T07:12:11.842Z,22.40
2022-08-26T07:14:40.356Z,22.80
2022-08-26T07:17:14.335Z,23.00
2022-08-26T07:19:43.241Z,23.10
2022-08-26T07:22:11.601Z,23.10
2022-08-26T07:24:42.356Z,23.20
2022-08-26T07:27:15.110Z,23.30
2022-08-26T07:29:44.795Z,23.30
2022-08-26T07:32:22.945Z,23.30
2022-08-26T07:34:51.785Z,23.40
2022-08-26T07:37:20.413Z,23.20
2022-08-26T07:39:48.861Z,23.20
2022-08-26T07:42:19.669Z,23.30
2022-08-26T07:44:48.748Z,23.30
2022-08-26T07:47:24.760Z,23.40
2022-08-26T07:49:56.616Z,23.90
2022-08-26T07:52:27.549Z,23.90
2022-08-26T07:54:58.093Z,24.40
2022-08-26T07:57:27.155Z,24.60
2022-08-26T07:59:56.673Z,25.00
2022-08-26T08:02:28.088Z,25.30
2022-08-26T08:04:57.862Z,25.50
2022-08-26T08:07:44.286Z,25.60
2022-08-26T08:10:17.931Z,25.50
2022-08-26T08:12:48.064Z,25.50
2022-08-26T08:15:20.111Z,25.60
2022-08-26T08:17:51.560Z,25.70
2022-08-26T08:20:20.849Z,26.00
2022-08-26T08:22:49.965Z,26.30
2022-08-26T08:25:18.520Z,27.10
2022-08-26T08:27:48.614Z,27.20
2022-08-26T08:30:23.039Z,27.80
2022-08-26T08:32:53.524Z,28.00
2022-08-26T08:35:26.250Z,28.00
2022-08-26T08:37:56.577Z,28.00
2022-08-26T08:40:27.844Z,27.80
2022-08-26T08:43:04.826Z,27.70
2022-08-26T08:45:37.730Z,27.70
2022-08-26T08:48:15.231Z,27.70
2022-08-26T08:50:48.373Z,27.70
2022-08-26T08:53:22.656Z,27.80
2022-08-26T08:56:05.529Z,27.80
2022-08-26T08:58:51.470Z,27.90
2022-08-26T09:01:31.716Z,28.00
2022-08-26T09:04:24.941Z,28.40
2022-08-26T09:06:59.072Z,28.50
2022-08-26T09:09:32.350Z,28.60
2022-08-26T09:12:03.216Z,28.80
2022-08-26T09:14:32.949Z,29.10
2022-08-26T09:17:14.077Z,29.80
2022-08-26T09:19:50.476Z,30.20
2022-08-26T09:22:31.004Z,30.40
2022-08-26T09:24:59.684Z,30.30
2022-08-26T09:27:44.078Z,30.10
2022-08-26T09:30:16.566Z,29.70
2022-08-26T09:33:01.177Z,29.50
2022-08-26T09:35:34.585Z,29.50
2022-08-26T09:38:03.732Z,29.30
2022-08-26T09:40:35.244Z,29.40
2022-08-26T09:43:22.867Z,29.40
2022-08-26T09:45:59.284Z,30.00
2022-08-26T09:48:35.534Z,30.60
2022-08-26T09:51:24.073Z,30.90
2022-08-26T09:53:56.140Z,30.90
2022-08-26T09:56:29.946Z,30.90
2022-08-26T09:58:59.665Z,30.60
2022-08-26T10:01:34.889Z,30.50
2022-08-26T10:04:11.322Z,30.20
2022-08-26T10:06:56.928Z,30.10
2022-08-26T10:09:28.116Z,29.60
2022-08-26T10:12:03.457Z,29.50
2022-08-26T10:14:39.772Z,29.30
2022-08-26T10:17:15.850Z,29.30
2022-08-26T10:19:56.744Z,29.20
2022-08-26T10:22:34.154Z,29.30
2022-08-26T10:25:09.233Z,29.30
2022-08-26T10:27:49.744Z,29.60
2022-08-26T10:30:28.638Z,29.80
2022-08-26T10:33:03.462Z,29.80
2022-08-26T10:35:34.797Z,29.80
2022-08-26T10:38:13.131Z,29.70
2022-08-26T10:40:56.156Z,29.60
2022-08-26T10:43:31.081Z,29.50
2022-08-26T10:46:04.278Z,29.50
2022-08-26T10:48:43.491Z,29.50
2022-08-26T10:51:13.640Z,30.10
2022-08-26T10:53:55.938Z,30.10
2022-08-26T10:56:44.597Z,30.70
2022-08-26T10:59:26.513Z,31.10
2022-08-26T11:02:06.343Z,31.30
2022-08-26T11:04:51.704Z,31.30
2022-08-26T11:07:42.885Z,31.30
2022-08-26T11:11:01.093Z,31.60
2022-08-26T11:14:04.358Z,32.50
2022-08-26T11:16:43.574Z,33.50
2022-08-26T11:19:58.765Z,34.30
2022-08-26T11:22:31.061Z,35.00
2022-08-26T11:25:11.398Z,35.30
2022-08-26T11:28:07.585Z,35.50
2022-08-26T11:30:43.861Z,35.80
2022-08-26T11:33:32.724Z,35.90
2022-08-26T11:36:01.304Z,36.00
2022-08-26T11:38:45.167Z,35.90
2022-08-26T11:41:21.824Z,35.50
2022-08-26T11:43:52.258Z,35.20
2022-08-26T11:46:27.776Z,35.10
2022-08-26T11:49:05.214Z,34.80
2022-08-26T11:51:40.186Z,34.70
2022-08-26T11:54:16.274Z,34.70
2022-08-26T11:56:48.056Z,34.90
2022-08-26T11:59:25.184Z,34.90
2022-08-26T12:01:55.649Z,35.00
2022-08-26T12:04:31.236Z,34.80
2022-08-26T12:07:03.038Z,34.60
2022-08-26T12:09:37.827Z,34.40
2022-08-26T12:12:17.060Z,34.30
2022-08-26T12:14:46.068Z,34.20
2022-08-26T12:17:18.781Z,34.30
2022-08-26T12:19:47.817Z,34.30
2022-08-26T12:22:23.112Z,34.20
2022-08-26T12:24:58.472Z,34.30
2022-08-26T12:27:29.228Z,34.60
2022-08-26T12:30:10.107Z,35.00
2022-08-26T12:32:57.472Z,35.60
2022-08-26T12:35:28.788Z,35.60
2022-08-26T12:37:58.708Z,36.70
2022-08-26T12:40:41.915Z,36.70
2022-08-26T12:43:13.525Z,37.20
2022-08-26T12:45:45.436Z,37.50
2022-08-26T12:48:24.638Z,37.80
2022-08-26T12:50:54.159Z,38.10
2022-08-26T12:53:24.887Z,38.40
2022-08-26T12:55:57.229Z,38.60
2022-08-26T12:58:30.078Z,38.70
2022-08-26T13:01:20.235Z,39.00
2022-08-26T13:03:49.802Z,39.10
2022-08-26T13:06:31.234Z,39.30
2022-08-26T13:09:02.105Z,39.40
2022-08-26T13:11:35.562Z,39.50
2022-08-26T13:14:09.380Z,39.60
2022-08-26T13:16:41.640Z,39.70
2022-08-26T13:19:13.080Z,39.70
2022-08-26T13:21:47.980Z,39.70
2022-08-26T13:24:20.965Z,39.80
2022-08-26T13:26:51.526Z,39.80
2022-08-26T13:29:20.721Z,39.90
2022-08-26T13:31:49.781Z,39.90
2022-08-26T13:34:21.533Z,39.90
2022-08-26T13:36:51.741Z,40.00
2022-08-26T13:39:21.229Z,39.90
2022-08-26T13:41:51.480Z,39.70
2022-08-26T13:44:20.326Z,39.60
2022-08-26T13:46:49.040Z,39.80
2022-08-26T13:49:17.556Z,39.90
2022-08-26T13:51:46.042Z,39.90
2022-08-26T13:54:14.406Z,40.20
2022-08-26T13:56:42.790Z,40.20
2022-08-26T13:59:12.629Z,40.10
2022-08-26T14:01:41.029Z,40.20
2022-08-26T14:04:09.581Z,40.50
2022-08-26T14:06:38.236Z,41.00
2022-08-26T14:09:06.823Z,41.40
2022-08-26T14:11:50.853Z,41.60
2022-08-26T14:14:25.109Z,41.60
2022-08-26T14:17:00.128Z,41.50
2022-08-26T14:19:31.063Z,41.20
2022-08-26T14:22:01.400Z,40.70
2022-08-26T14:24:30.156Z,40.30
2022-08-26T14:26:58.593Z,40.10
2022-08-26T14:29:28.670Z,39.70
2022-08-26T14:31:58.919Z,39.40
2022-08-26T14:34:27.721Z,39.20
2022-08-26T14:36:56.084Z,39.40
2022-08-26T14:39:24.524Z,39.40
2022-08-26T14:41:56.746Z,39.30
2022-08-26T14:44:31.346Z,38.60
2022-08-26T14:47:03.416Z,38.20
2022-08-26T14:49:32.358Z,38.10
2022-08-26T14:52:00.780Z,37.60
2022-08-26T14:54:29.361Z,37.10
2022-08-26T14:57:02.042Z,36.90
2022-08-26T14:59:36.145Z,36.70
2022-08-26T15:02:06.178Z,36.60
2022-08-26T15:04:34.985Z,36.30
2022-08-26T15:07:04.865Z,36.10
2022-08-26T15:09:36.828Z,36.00
2022-08-26T15:12:06.560Z,35.90
2022-08-26T15:14:36.349Z,35.90
2022-08-26T15:17:05.317Z,35.60
2022-08-26T15:22:02.363Z,32.40
2022-08-26T15:24:30.732Z,33.90
2022-08-26T15:26:59.252Z,33.50
2022-08-26T15:29:27.836Z,33.30
2022-08-26T15:31:57.733Z,33.00
2022-08-26T15:34:26.854Z,32.70
2022-08-26T15:36:55.940Z,32.40
2022-08-26T15:39:24.757Z,32.10
2022-08-26T15:44:21.985Z,31.50
2022-08-26T15:46:55.348Z,31.30
2022-08-26T15:49:28.510Z,31.20
2022-08-26T15:56:54.516Z,30.40
2022-08-26T15:59:23.448Z,30.10
2022-08-26T16:04:21.957Z,29.70
2022-08-26T16:06:52.182Z,29.60
2022-08-26T16:09:24.322Z,29.60
2022-08-26T16:11:53.295Z,29.30
2022-08-26T16:14:22.480Z,29.20
2022-08-26T16:19:20.067Z,28.90
2022-08-26T16:21:50.693Z,28.90
2022-08-26T16:24:24.860Z,28.80
2022-08-26T16:26:55.354Z,28.70
2022-08-26T16:29:24.492Z,28.60
2022-08-26T16:31:54.611Z,28.50
2022-08-26T16:34:23.317Z,28.50
2022-08-26T16:36:53.063Z,28.50
2022-08-26T16:39:22.787Z,28.50
2022-08-26T16:44:19.832Z,28.50
2022-08-26T16:46:48.297Z,28.40
2022-08-26T16:51:45.505Z,28.50
2022-08-26T16:56:44.297Z,28.30
2022-08-26T16:59:12.925Z,28.30
2022-08-26T17:04:10.125Z,28.60
2022-08-26T17:06:38.550Z,28.70
2022-08-26T17:11:36.019Z,28.60
2022-08-26T17:14:06.590Z,28.30
2022-08-26T17:16:35.344Z,28.10
2022-08-26T17:19:05.537Z,27.90
2022-08-26T17:21:35.719Z,27.70
2022-08-26T17:24:05.899Z,27.50
2022-08-26T17:26:34.498Z,27.30
2022-08-26T17:31:33.089Z,26.90
2022-08-26T17:34:01.504Z,26.80
2022-08-26T17:36:30.061Z,26.70
2022-08-26T17:38:59.533Z,26.50
2022-08-26T17:41:28.785Z,26.40
2022-08-26T17:43:57.486Z,26.30
2022-08-26T17:46:26.602Z,26.30
2022-08-26T17:48:56.849Z,26.20
2022-08-26T17:51:25.396Z,26.10
2022-08-26T17:53:54.002Z,26.00
2022-08-26T17:56:25.477Z,26.00
2022-08-26T18:01:27.559Z,25.80
2022-08-26T18:04:00.441Z,25.80
2022-08-26T18:08:59.429Z,25.70
2022-08-26T18:11:28.585Z,25.60
2022-08-26T18:13:56.948Z,25.60
2022-08-26T18:18:55.921Z,25.50
2022-08-26T18:21:28.831Z,25.50
2022-08-26T18:23:57.806Z,25.40
2022-08-26T18:26:29.645Z,25.40
2022-08-26T18:31:27.762Z,25.30
2022-08-26T18:34:00.197Z,25.30
2022-08-26T18:36:31.477Z,25.20
2022-08-26T18:39:00.570Z,25.20
2022-08-26T18:41:33.387Z,25.20
2022-08-26T18:44:01.960Z,25.10
2022-08-26T18:46:30.462Z,25.10
2022-08-26T18:49:00.337Z,25.00
2022-08-26T18:51:31.897Z,25.00
2022-08-26T18:54:02.487Z,25.00
2022-08-26T18:56:31.374Z,25.00
2022-08-26T18:59:00.097Z,24.90
2022-08-26T19:01:34.043Z,24.90
2022-08-26T19:04:06.501Z,24.80
2022-08-26T19:06:36.917Z,24.80
2022-08-26T19:09:08.908Z,24.70
2022-08-26T19:11:38.358Z,24.70
2022-08-26T19:14:14.207Z,24.60
2022-08-26T19:16:44.808Z,24.60
2022-08-26T19:19:15.376Z,24.60
2022-08-26T19:21:44.117Z,24.50
2022-08-26T19:24:17.359Z,24.50
2022-08-26T19:26:48.932Z,24.40
2022-08-26T19:29:20.517Z,24.30
2022-08-26T19:31:49.048Z,24.30
2022-08-26T19:34:20.686Z,24.30
2022-08-26T19:39:18.845Z,24.20
2022-08-26T19:41:47.805Z,24.10
2022-08-26T19:44:51.235Z,24.10
2022-08-26T19:47:19.668Z,24.10
2022-08-26T19:49:53.376Z,24.00
2022-08-26T19:52:22.583Z,24.00
2022-08-26T19:59:55.678Z,24.00
2022-08-26T20:04:54.424Z,23.90
2022-08-26T20:07:23.084Z,23.90
2022-08-26T20:09:51.558Z,23.90
2022-08-26T20:14:48.725Z,23.80
2022-08-26T20:20:03.469Z,23.80
2022-08-26T20:22:34.122Z,23.70
2022-08-26T20:27:38.035Z,23.70
2022-08-26T20:30:10.262Z,23.70
2022-08-26T20:32:39.734Z,23.70
2022-08-26T20:35:12.028Z,23.70
2022-08-26T20:37:42.908Z,23.70
2022-08-26T20:40:13.891Z,23.60
2022-08-26T20:42:42.493Z,23.60
2022-08-26T20:45:11.905Z,23.60
2022-08-26T20:50:10.120Z,23.60
2022-08-26T20:52:38.559Z,23.60
2022-08-26T20:55:09.921Z,23.60
2022-08-26T21:00:08.465Z,23.50
2022-08-26T21:05:06.991Z,23.50
2022-08-26T21:07:35.958Z,23.50
2022-08-26T21:10:04.954Z,23.40
2022-08-26T21:12:35.479Z,23.30
2022-08-26T21:15:04.620Z,23.40
2022-08-26T21:17:33.245Z,23.30
2022-08-26T21:22:30.821Z,23.20
2022-08-26T21:24:59.180Z,23.20
2022-08-26T21:27:27.888Z,23.10
2022-08-26T21:29:58.116Z,23.10
2022-08-26T21:34:57.204Z,23.10
2022-08-26T21:37:26.793Z,22.90
2022-08-26T21:39:58.903Z,22.90
2022-08-26T21:42:32.956Z,22.90
2022-08-26T21:45:04.188Z,22.90
2022-08-26T21:47:32.887Z,22.90
2022-08-26T21:52:30.232Z,22.90
2022-08-26T21:54:59.820Z,22.90
2022-08-26T21:57:29.987Z,22.90
2022-08-26T21:59:58.976Z,22.90
2022-08-26T22:04:57.532Z,22.90
2022-08-26T22:07:26.090Z,22.90
2022-08-26T22:12:23.153Z,22.90
2022-08-26T22:14:51.604Z,22.80
2022-08-26T22:17:19.960Z,22.80
2022-08-26T22:19:50.087Z,22.80
2022-08-26T22:22:18.581Z,22.80
2022-08-26T22:24:46.969Z,22.80
2022-08-26T22:27:15.824Z,22.80
2022-08-26T22:29:46.490Z,22.80
2022-08-26T22:32:15.376Z,22.70
2022-08-26T22:37:13.873Z,22.70
2022-08-26T22:42:10.980Z,22.60
2022-08-26T22:47:24.989Z,22.50
2022-08-26T22:49:53.437Z,22.60
2022-08-26T22:52:23.168Z,22.50
2022-08-26T22:54:52.005Z,22.50
2022-08-26T22:57:20.797Z,22.40
2022-08-26T23:02:18.188Z,22.30
2022-08-26T23:04:46.652Z,22.30
2022-08-26T23:07:15.041Z,22.30
2022-08-26T23:09:45.098Z,22.20
2022-08-26T23:12:13.718Z,22.20
2022-08-26T23:17:14.322Z,22.20
2022-08-26T23:19:42.986Z,22.20
2022-08-26T23:22:11.573Z,22.20
2022-08-26T23:24:40.869Z,22.20
2022-08-26T23:27:11.232Z,22.10
2022-08-26T23:29:39.820Z,22.10
2022-08-26T23:32:08.359Z,22.10
2022-08-26T23:34:54.289Z,22.10
2022-08-26T23:37:23.261Z,22.00
2022-08-26T23:42:24.336Z,22.00
2022-08-26T23:47:25.173Z,21.90
2022-08-26T23:52:39.866Z,21.90
2022-08-26T23:55:10.640Z,21.90
2022-08-26T23:57:40.516Z,21.90
